Skip Navigation Links Skip Navigation Links

Current Weather

Cambridge Bay Apt, Cambridge Bay, N.T.

For information only: do not use for flight planning or navigation.
Latest weather
Observation time Friday, November 17, 2017 2:00 PM MST
Local time Friday, November 17, 2017 2:20 PM MST
Flight conditions Marginal Visual Meteorological Conditions
Winds
Wind direction North-Northeast (30°)
Wind speed 15 mph
Visibility 4 mi.
Present weather light snow, drifting snow
Sky condition
Ceiling 3,500 ft. overcast
Cloud layer scattered clouds 1,500 ft.
Cloud layer overcast 3,500 ft.
Temperature -13°F
Dewpoint -18°F
Altimeter 29.93 in.Hg
Derived measurements
Relative humidity 76%
Wind chill -36°F
Density altitude -5092 ft.
Sea-level pressure 29.95 in.Hg
METAR CYCB 172100Z 03013KT 4SM -SN DRSN SCT015 OVC035 M25/M28 A2993 RMK SC3SC5 SLP143

Settings

Location code

InnerDrive.Weather 4.0.6144.1 Release CLR 4.0.30319.36366
Copyright ©2015 Inner Drive Technology. All rights reserved. Portions Copyright ©1986-2015 David Braverman.

Find weather

Site navigation


Skip Navigation Links

Place info

Page info

PayPal - The safer, easier way to pay online!

Return home.

Copyright ©2017 Inner Drive Technology. Purveyors of fine, hand-crafted computer software. Page printed 2017-11-17T21:20:39 UTC.